sensor_id;sensor_type;location;lat;lon;timestamp;temperature;humidity
10662;DHT22;5379;51.034;7.006;2022-12-18T00:00:59;-2.10;99.90
10662;DHT22;5379;51.034;7.006;2022-12-18T00:03:31;-2.00;99.90
10662;DHT22;5379;51.034;7.006;2022-12-18T00:06:00;-2.10;99.90
10662;DHT22;5379;51.034;7.006;2022-12-18T00:08:27;-1.90;99.90
10662;DHT22;5379;51.034;7.006;2022-12-18T00:10:55;-1.90;99.90
10662;DHT22;5379;51.034;7.006;2022-12-18T00:13:22;-1.90;99.90
10662;DHT22;5379;51.034;7.006;2022-12-18T00:15:49;-1.90;99.90
10662;DHT22;5379;51.034;7.006;2022-12-18T00:18:16;-1.90;99.90
10662;DHT22;5379;51.034;7.006;2022-12-18T00:20:43;-1.80;99.90
10662;DHT22;5379;51.034;7.006;2022-12-18T00:23:11;-1.80;99.90
10662;DHT22;5379;51.034;7.006;2022-12-18T00:25:38;-1.60;99.90
10662;DHT22;5379;51.034;7.006;2022-12-18T00:28:05;-1.50;99.90
10662;DHT22;5379;51.034;7.006;2022-12-18T00:30:32;-1.50;99.90
10662;DHT22;5379;51.034;7.006;2022-12-18T00:32:59;-1.40;99.90
10662;DHT22;5379;51.034;7.006;2022-12-18T00:35:26;-1.40;99.90
10662;DHT22;5379;51.034;7.006;2022-12-18T00:37:53;-1.40;99.90
10662;DHT22;5379;51.034;7.006;2022-12-18T00:40:22;-1.40;99.90
10662;DHT22;5379;51.034;7.006;2022-12-18T00:42:49;-1.40;99.90
10662;DHT22;5379;51.034;7.006;2022-12-18T00:45:21;-1.50;99.90
10662;DHT22;5379;51.034;7.006;2022-12-18T00:47:51;-1.50;99.90
10662;DHT22;5379;51.034;7.006;2022-12-18T00:50:18;-1.50;99.90
10662;DHT22;5379;51.034;7.006;2022-12-18T00:52:45;-1.40;99.90
10662;DHT22;5379;51.034;7.006;2022-12-18T00:55:12;-1.30;99.90
10662;DHT22;5379;51.034;7.006;2022-12-18T00:57:41;-1.20;99.90
10662;DHT22;5379;51.034;7.006;2022-12-18T01:00:10;-1.30;99.90
10662;DHT22;5379;51.034;7.006;2022-12-18T01:02:38;-1.20;99.90
10662;DHT22;5379;51.034;7.006;2022-12-18T01:05:05;-1.20;99.90
10662;DHT22;5379;51.034;7.006;2022-12-18T01:07:33;-1.30;99.90
10662;DHT22;5379;51.034;7.006;2022-12-18T01:09:59;-1.30;99.90
10662;DHT22;5379;51.034;7.006;2022-12-18T01:12:26;-1.10;99.90
10662;DHT22;5379;51.034;7.006;2022-12-18T01:14:55;-1.20;99.90
10662;DHT22;5379;51.034;7.006;2022-12-18T01:17:22;-1.20;99.90
10662;DHT22;5379;51.034;7.006;2022-12-18T01:19:49;-1.10;99.90
10662;DHT22;5379;51.034;7.006;2022-12-18T01:22:16;-1.10;99.90
10662;DHT22;5379;51.034;7.006;2022-12-18T01:24:43;-1.20;99.90
10662;DHT22;5379;51.034;7.006;2022-12-18T01:27:10;-1.20;99.90
10662;DHT22;5379;51.034;7.006;2022-12-18T01:29:37;-1.20;99.90
10662;DHT22;5379;51.034;7.006;2022-12-18T05:30:32;-3.30;99.90
10662;DHT22;5379;51.034;7.006;2022-12-18T05:32:59;-3.30;99.90
10662;DHT22;5379;51.034;7.006;2022-12-18T05:35:26;-3.30;99.90
10662;DHT22;5379;51.034;7.006;2022-12-18T05:37:53;-3.30;99.90
10662;DHT22;5379;51.034;7.006;2022-12-18T05:40:20;-3.20;99.90
10662;DHT22;5379;51.034;7.006;2022-12-18T05:42:47;-3.30;99.90
10662;DHT22;5379;51.034;7.006;2022-12-18T05:45:14;-3.30;99.90
10662;DHT22;5379;51.034;7.006;2022-12-18T05:47:42;-3.30;99.90
10662;DHT22;5379;51.034;7.006;2022-12-18T05:50:09;-3.20;99.90
10662;DHT22;5379;51.034;7.006;2022-12-18T05:52:36;-3.30;99.90
10662;DHT22;5379;51.034;7.006;2022-12-18T05:55:04;-3.20;99.90
10662;DHT22;5379;51.034;7.006;2022-12-18T05:57:31;-3.20;99.90
10662;DHT22;5379;51.034;7.006;2022-12-18T05:59:58;-3.20;99.90
10662;DHT22;5379;51.034;7.006;2022-12-18T06:02:24;-3.30;99.90
10662;DHT22;5379;51.034;7.006;2022-12-18T06:04:53;-3.40;99.90
10662;DHT22;5379;51.034;7.006;2022-12-18T06:07:20;-3.40;99.90
10662;DHT22;5379;51.034;7.006;2022-12-18T06:09:47;-3.40;99.90
10662;DHT22;5379;51.034;7.006;2022-12-18T06:12:14;-3.40;99.90
10662;DHT22;5379;51.034;7.006;2022-12-18T06:14:41;-3.40;99.90
10662;DHT22;5379;51.034;7.006;2022-12-18T06:17:08;-3.40;99.90
10662;DHT22;5379;51.034;7.006;2022-12-18T06:19:35;-3.40;99.90
10662;DHT22;5379;51.034;7.006;2022-12-18T06:22:03;-3.40;99.90
10662;DHT22;5379;51.034;7.006;2022-12-18T06:24:30;-3.40;99.90
10662;DHT22;5379;51.034;7.006;2022-12-18T06:26:58;-3.50;99.90
10662;DHT22;5379;51.034;7.006;2022-12-18T06:29:25;-3.50;99.90
10662;DHT22;5379;51.034;7.006;2022-12-18T06:31:52;-3.50;99.90
10662;DHT22;5379;51.034;7.006;2022-12-18T06:34:19;-3.40;99.90
10662;DHT22;5379;51.034;7.006;2022-12-18T06:36:46;-3.40;99.90
10662;DHT22;5379;51.034;7.006;2022-12-18T06:39:14;-3.50;99.90
10662;DHT22;5379;51.034;7.006;2022-12-18T06:41:41;-3.30;99.90
10662;DHT22;5379;51.034;7.006;2022-12-18T06:44:08;-3.30;99.90
10662;DHT22;5379;51.034;7.006;2022-12-18T06:46:35;-3.30;99.90
10662;DHT22;5379;51.034;7.006;2022-12-18T06:49:03;-3.30;99.90
10662;DHT22;5379;51.034;7.006;2022-12-18T06:51:30;-3.40;99.90
10662;DHT22;5379;51.034;7.006;2022-12-18T06:53:57;-3.40;99.90
10662;DHT22;5379;51.034;7.006;2022-12-18T06:56:26;-3.40;99.90
10662;DHT22;5379;51.034;7.006;2022-12-18T06:58:53;-3.50;99.90
10662;DHT22;5379;51.034;7.006;2022-12-18T07:01:21;-3.50;99.90
10662;DHT22;5379;51.034;7.006;2022-12-18T07:03:52;-3.50;99.90
10662;DHT22;5379;51.034;7.006;2022-12-18T07:06:21;-3.40;99.90
10662;DHT22;5379;51.034;7.006;2022-12-18T07:08:49;-3.30;99.90
10662;DHT22;5379;51.034;7.006;2022-12-18T07:11:18;-3.20;99.90
10662;DHT22;5379;51.034;7.006;2022-12-18T07:13:46;-3.20;99.90
10662;DHT22;5379;51.034;7.006;2022-12-18T07:16:15;-3.20;99.90
10662;DHT22;5379;51.034;7.006;2022-12-18T07:18:43;-3.20;99.90
10662;DHT22;5379;51.034;7.006;2022-12-18T07:21:13;-3.20;99.90
10662;DHT22;5379;51.034;7.006;2022-12-18T07:23:41;-3.20;99.90
10662;DHT22;5379;51.034;7.006;2022-12-18T07:26:09;-3.20;99.90
10662;DHT22;5379;51.034;7.006;2022-12-18T07:28:37;-3.10;99.90
10662;DHT22;5379;51.034;7.006;2022-12-18T07:31:07;-3.10;99.90
10662;DHT22;5379;51.034;7.006;2022-12-18T07:33:34;-3.20;99.90
10662;DHT22;5379;51.034;7.006;2022-12-18T07:36:02;-3.20;99.90
10662;DHT22;5379;51.034;7.006;2022-12-18T07:38:30;-3.10;99.90
10662;DHT22;5379;51.034;7.006;2022-12-18T07:41:00;-3.10;99.90
10662;DHT22;5379;51.034;7.006;2022-12-18T07:43:27;-3.10;99.90
10662;DHT22;5379;51.034;7.006;2022-12-18T07:45:54;-3.10;99.90
10662;DHT22;5379;51.034;7.006;2022-12-18T07:48:23;-3.10;99.90
10662;DHT22;5379;51.034;7.006;2022-12-18T07:50:50;-3.10;99.90
10662;DHT22;5379;51.034;7.006;2022-12-18T07:53:16;-3.10;99.90
10662;DHT22;5379;51.034;7.006;2022-12-18T07:55:43;-3.10;99.90
10662;DHT22;5379;51.034;7.006;2022-12-18T07:58:11;-3.10;99.90
10662;DHT22;5379;51.034;7.006;2022-12-18T08:00:38;-3.20;99.90
10662;DHT22;5379;51.034;7.006;2022-12-18T08:03:05;-3.20;99.90
10662;DHT22;5379;51.034;7.006;2022-12-18T08:05:33;-3.20;99.90
10662;DHT22;5379;51.034;7.006;2022-12-18T08:08:00;-3.10;99.90
10662;DHT22;5379;51.034;7.006;2022-12-18T08:10:27;-3.00;99.90
10662;DHT22;5379;51.034;7.006;2022-12-18T08:12:54;-3.00;99.90
10662;DHT22;5379;51.034;7.006;2022-12-18T08:15:21;-2.90;99.90
10662;DHT22;5379;51.034;7.006;2022-12-18T08:17:48;-2.70;99.90
10662;DHT22;5379;51.034;7.006;2022-12-18T08:20:15;-2.70;99.90
10662;DHT22;5379;51.034;7.006;2022-12-18T08:22:45;-2.30;99.90
10662;DHT22;5379;51.034;7.006;2022-12-18T08:25:12;-2.70;99.90
10662;DHT22;5379;51.034;7.006;2022-12-18T08:27:39;-2.70;99.90
10662;DHT22;5379;51.034;7.006;2022-12-18T08:30:07;-2.70;99.90
10662;DHT22;5379;51.034;7.006;2022-12-18T08:32:34;-2.50;99.90
10662;DHT22;5379;51.034;7.006;2022-12-18T08:35:01;-2.50;99.90
10662;DHT22;5379;51.034;7.006;2022-12-18T08:37:28;-2.40;99.90
10662;DHT22;5379;51.034;7.006;2022-12-18T08:39:57;-2.40;99.90
10662;DHT22;5379;51.034;7.006;2022-12-18T08:42:24;-2.40;99.90
10662;DHT22;5379;51.034;7.006;2022-12-18T08:45:09;-2.40;99.90
10662;DHT22;5379;51.034;7.006;2022-12-18T08:47:36;-2.40;99.90
10662;DHT22;5379;51.034;7.006;2022-12-18T08:50:03;-2.30;99.90
10662;DHT22;5379;51.034;7.006;2022-12-18T08:52:31;-2.20;99.90
10662;DHT22;5379;51.034;7.006;2022-12-18T08:55:00;-2.10;99.90
10662;DHT22;5379;51.034;7.006;2022-12-18T08:57:27;-2.00;99.90
10662;DHT22;5379;51.034;7.006;2022-12-18T08:59:54;-2.00;99.90
10662;DHT22;5379;51.034;7.006;2022-12-18T09:02:21;-1.90;99.90
10662;DHT22;5379;51.034;7.006;2022-12-18T09:04:48;-1.70;99.90
10662;DHT22;5379;51.034;7.006;2022-12-18T09:07:15;-1.50;99.90
10662;DHT22;5379;51.034;7.006;2022-12-18T09:09:42;-1.40;99.90
10662;DHT22;5379;51.034;7.006;2022-12-18T09:12:10;-1.40;99.90
10662;DHT22;5379;51.034;7.006;2022-12-18T09:14:37;-1.30;99.90
10662;DHT22;5379;51.034;7.006;2022-12-18T09:17:04;-1.20;99.90
10662;DHT22;5379;51.034;7.006;2022-12-18T09:19:31;-1.20;99.90
10662;DHT22;5379;51.034;7.006;2022-12-18T09:21:58;-1.10;99.90
10662;DHT22;5379;51.034;7.006;2022-12-18T09:24:25;-0.90;99.90
10662;DHT22;5379;51.034;7.006;2022-12-18T09:26:53;-0.90;99.90
10662;DHT22;5379;51.034;7.006;2022-12-18T09:29:21;-0.80;99.90
10662;DHT22;5379;51.034;7.006;2022-12-18T09:31:48;-0.80;99.90
10662;DHT22;5379;51.034;7.006;2022-12-18T09:34:16;-0.70;99.90
10662;DHT22;5379;51.034;7.006;2022-12-18T09:36:43;-0.60;99.90
10662;DHT22;5379;51.034;7.006;2022-12-18T09:39:10;-0.40;99.90
10662;DHT22;5379;51.034;7.006;2022-12-18T09:41:44;-0.30;99.90
10662;DHT22;5379;51.034;7.006;2022-12-18T09:44:21;-0.20;99.90
10662;DHT22;5379;51.034;7.006;2022-12-18T09:46:54;-0.10;99.90
10662;DHT22;5379;51.034;7.006;2022-12-18T09:49:28;0.00;99.90
10662;DHT22;5379;51.034;7.006;2022-12-18T09:51:59;0.10;99.90
10662;DHT22;5379;51.034;7.006;2022-12-18T09:54:33;0.30;99.90
10662;DHT22;5379;51.034;7.006;2022-12-18T09:57:01;0.50;99.90
10662;DHT22;5379;51.034;7.006;2022-12-18T09:59:34;0.40;99.90
10662;DHT22;5379;51.034;7.006;2022-12-18T10:02:15;0.50;99.90
10662;DHT22;5379;51.034;7.006;2022-12-18T10:04:43;0.60;99.90
10662;DHT22;5379;51.034;7.006;2022-12-18T10:07:17;0.70;99.90
10662;DHT22;5379;51.034;7.006;2022-12-18T10:09:50;0.80;99.90
10662;DHT22;5379;51.034;7.006;2022-12-18T10:12:25;0.80;99.90
10662;DHT22;5379;51.034;7.006;2022-12-18T10:14:58;0.80;99.90
10662;DHT22;5379;51.034;7.006;2022-12-18T10:17:39;0.90;99.90
10662;DHT22;5379;51.034;7.006;2022-12-18T10:20:13;1.00;99.90
10662;DHT22;5379;51.034;7.006;2022-12-18T10:22:50;1.10;99.90
10662;DHT22;5379;51.034;7.006;2022-12-18T10:25:23;1.20;99.90
10662;DHT22;5379;51.034;7.006;2022-12-18T10:27:53;1.30;99.90
10662;DHT22;5379;51.034;7.006;2022-12-18T10:30:25;1.30;99.90
10662;DHT22;5379;51.034;7.006;2022-12-18T10:32:52;1.30;99.90
10662;DHT22;5379;51.034;7.006;2022-12-18T10:35:21;1.40;99.90
10662;DHT22;5379;51.034;7.006;2022-12-18T10:38:06;1.50;99.90
10662;DHT22;5379;51.034;7.006;2022-12-18T10:40:48;1.50;99.80
10662;DHT22;5379;51.034;7.006;2022-12-18T10:43:20;1.50;99.50
10662;DHT22;5379;51.034;7.006;2022-12-18T10:46:14;1.60;99.60
10662;DHT22;5379;51.034;7.006;2022-12-18T10:48:53;1.60;99.50
10662;DHT22;5379;51.034;7.006;2022-12-18T10:51:23;1.70;99.40
10662;DHT22;5379;51.034;7.006;2022-12-18T10:53:56;1.70;99.10
10662;DHT22;5379;51.034;7.006;2022-12-18T10:56:26;1.80;99.00
10662;DHT22;5379;51.034;7.006;2022-12-18T10:58:58;1.80;98.90
10662;DHT22;5379;51.034;7.006;2022-12-18T11:01:28;1.80;98.80
10662;DHT22;5379;51.034;7.006;2022-12-18T11:04:07;1.80;98.90
10662;DHT22;5379;51.034;7.006;2022-12-18T11:06:53;1.90;98.90
10662;DHT22;5379;51.034;7.006;2022-12-18T11:09:22;1.90;98.90
10662;DHT22;5379;51.034;7.006;2022-12-18T11:11:50;2.00;98.70
10662;DHT22;5379;51.034;7.006;2022-12-18T11:14:22;1.90;98.60
10662;DHT22;5379;51.034;7.006;2022-12-18T11:16:52;2.00;98.90
10662;DHT22;5379;51.034;7.006;2022-12-18T11:19:26;2.00;98.70
10662;DHT22;5379;51.034;7.006;2022-12-18T11:21:54;2.10;98.50
10662;DHT22;5379;51.034;7.006;2022-12-18T11:24:26;2.20;98.80
10662;DHT22;5379;51.034;7.006;2022-12-18T11:26:54;2.20;98.30
10662;DHT22;5379;51.034;7.006;2022-12-18T11:29:31;2.20;98.20
10662;DHT22;5379;51.034;7.006;2022-12-18T11:32:27;2.20;98.20
10662;DHT22;5379;51.034;7.006;2022-12-18T11:35:07;2.30;98.30
10662;DHT22;5379;51.034;7.006;2022-12-18T11:37:35;2.30;98.40
10662;DHT22;5379;51.034;7.006;2022-12-18T11:40:09;2.30;98.20
10662;DHT22;5379;51.034;7.006;2022-12-18T11:42:41;2.30;97.80
10662;DHT22;5379;51.034;7.006;2022-12-18T11:45:33;2.20;98.10
10662;DHT22;5379;51.034;7.006;2022-12-18T11:48:08;2.40;97.90
10662;DHT22;5379;51.034;7.006;2022-12-18T11:50:46;2.40;97.80
10662;DHT22;5379;51.034;7.006;2022-12-18T11:53:15;2.50;97.80
10662;DHT22;5379;51.034;7.006;2022-12-18T11:55:49;2.50;97.40
10662;DHT22;5379;51.034;7.006;2022-12-18T11:58:27;2.40;97.50
10662;DHT22;5379;51.034;7.006;2022-12-18T12:01:03;2.50;97.80
10662;DHT22;5379;51.034;7.006;2022-12-18T12:03:59;2.50;97.90
10662;DHT22;5379;51.034;7.006;2022-12-18T12:06:35;2.40;97.90
10662;DHT22;5379;51.034;7.006;2022-12-18T12:09:12;2.40;97.80
10662;DHT22;5379;51.034;7.006;2022-12-18T12:11:53;2.40;97.80
10662;DHT22;5379;51.034;7.006;2022-12-18T12:14:31;2.30;97.60
10662;DHT22;5379;51.034;7.006;2022-12-18T12:17:05;2.30;97.70
10662;DHT22;5379;51.034;7.006;2022-12-18T12:19:44;2.30;97.80
10662;DHT22;5379;51.034;7.006;2022-12-18T12:22:20;2.30;97.80
10662;DHT22;5379;51.034;7.006;2022-12-18T12:25:00;2.30;97.60
10662;DHT22;5379;51.034;7.006;2022-12-18T12:27:36;2.30;97.80
10662;DHT22;5379;51.034;7.006;2022-12-18T12:30:08;2.30;97.80
10662;DHT22;5379;51.034;7.006;2022-12-18T12:32:58;2.20;97.80
10662;DHT22;5379;51.034;7.006;2022-12-18T12:35:42;2.20;98.00
10662;DHT22;5379;51.034;7.006;2022-12-18T12:38:13;2.30;97.80
10662;DHT22;5379;51.034;7.006;2022-12-18T12:40:45;2.20;97.80
10662;DHT22;5379;51.034;7.006;2022-12-18T12:43:24;2.20;97.80
10662;DHT22;5379;51.034;7.006;2022-12-18T12:45:54;2.10;97.70
10662;DHT22;5379;51.034;7.006;2022-12-18T12:48:32;2.10;97.80
10662;DHT22;5379;51.034;7.006;2022-12-18T12:51:04;2.20;97.80
10662;DHT22;5379;51.034;7.006;2022-12-18T12:53:36;2.30;97.80
10662;DHT22;5379;51.034;7.006;2022-12-18T12:56:05;2.30;97.70
10662;DHT22;5379;51.034;7.006;2022-12-18T12:58:38;2.30;97.60
10662;DHT22;5379;51.034;7.006;2022-12-18T13:01:16;2.30;97.80
10662;DHT22;5379;51.034;7.006;2022-12-18T13:03:54;2.50;97.60
10662;DHT22;5379;51.034;7.006;2022-12-18T13:06:35;2.40;97.60
10662;DHT22;5379;51.034;7.006;2022-12-18T13:09:04;2.30;97.30
10662;DHT22;5379;51.034;7.006;2022-12-18T13:11:41;2.50;98.20
10662;DHT22;5379;51.034;7.006;2022-12-18T13:14:31;2.30;97.30
10662;DHT22;5379;51.034;7.006;2022-12-18T13:17:27;2.30;97.20
10662;DHT22;5379;51.034;7.006;2022-12-18T13:20:12;2.20;97.70
10662;DHT22;5379;51.034;7.006;2022-12-18T13:22:44;2.10;97.40
10662;DHT22;5379;51.034;7.006;2022-12-18T13:25:33;2.20;97.40
10662;DHT22;5379;51.034;7.006;2022-12-18T13:28:06;2.30;98.40
10662;DHT22;5379;51.034;7.006;2022-12-18T13:30:49;2.30;97.10
10662;DHT22;5379;51.034;7.006;2022-12-18T13:33:40;2.20;97.30
10662;DHT22;5379;51.034;7.006;2022-12-18T13:36:32;2.30;97.40
10662;DHT22;5379;51.034;7.006;2022-12-18T13:39:23;2.30;97.00
10662;DHT22;5379;51.034;7.006;2022-12-18T13:41:51;2.20;97.00
10662;DHT22;5379;51.034;7.006;2022-12-18T13:44:31;2.30;97.30
10662;DHT22;5379;51.034;7.006;2022-12-18T13:46:59;2.30;97.40
10662;DHT22;5379;51.034;7.006;2022-12-18T13:49:32;2.20;97.40
10662;DHT22;5379;51.034;7.006;2022-12-18T13:52:03;2.20;97.50
10662;DHT22;5379;51.034;7.006;2022-12-18T13:54:47;2.20;97.50
10662;DHT22;5379;51.034;7.006;2022-12-18T13:57:26;2.20;97.20
10662;DHT22;5379;51.034;7.006;2022-12-18T13:59:54;2.10;97.30
10662;DHT22;5379;51.034;7.006;2022-12-18T14:02:23;2.20;97.60
10662;DHT22;5379;51.034;7.006;2022-12-18T14:04:50;2.10;97.20
10662;DHT22;5379;51.034;7.006;2022-12-18T14:07:19;2.20;97.60
10662;DHT22;5379;51.034;7.006;2022-12-18T14:09:50;2.20;97.30
10662;DHT22;5379;51.034;7.006;2022-12-18T14:12:19;2.50;97.30
10662;DHT22;5379;51.034;7.006;2022-12-18T14:15:06;2.40;96.90
10662;DHT22;5379;51.034;7.006;2022-12-18T14:17:38;2.30;96.90
10662;DHT22;5379;51.034;7.006;2022-12-18T14:20:13;2.30;97.10
10662;DHT22;5379;51.034;7.006;2022-12-18T14:22:43;2.30;97.40
10662;DHT22;5379;51.034;7.006;2022-12-18T14:25:19;2.30;97.20
10662;DHT22;5379;51.034;7.006;2022-12-18T14:27:49;2.30;97.20
10662;DHT22;5379;51.034;7.006;2022-12-18T14:30:26;2.20;97.20
10662;DHT22;5379;51.034;7.006;2022-12-18T14:33:01;2.20;97.20
10662;DHT22;5379;51.034;7.006;2022-12-18T14:35:28;2.20;97.30
10662;DHT22;5379;51.034;7.006;2022-12-18T14:38:19;2.20;97.40
10662;DHT22;5379;51.034;7.006;2022-12-18T14:40:52;2.10;97.50
10662;DHT22;5379;51.034;7.006;2022-12-18T14:43:19;2.20;97.50
10662;DHT22;5379;51.034;7.006;2022-12-18T14:45:46;2.10;97.40
10662;DHT22;5379;51.034;7.006;2022-12-18T14:48:19;2.30;97.40
10662;DHT22;5379;51.034;7.006;2022-12-18T14:50:56;2.20;97.00
10662;DHT22;5379;51.034;7.006;2022-12-18T14:53:36;2.20;97.00
10662;DHT22;5379;51.034;7.006;2022-12-18T14:56:14;2.10;97.40
10662;DHT22;5379;51.034;7.006;2022-12-18T14:58:47;2.20;97.20
10662;DHT22;5379;51.034;7.006;2022-12-18T15:01:19;2.20;97.10
10662;DHT22;5379;51.034;7.006;2022-12-18T15:03:48;2.20;97.10
10662;DHT22;5379;51.034;7.006;2022-12-18T15:06:16;2.20;97.10
10662;DHT22;5379;51.034;7.006;2022-12-18T15:08:44;2.20;97.10
10662;DHT22;5379;51.034;7.006;2022-12-18T15:11:28;2.10;96.90
10662;DHT22;5379;51.034;7.006;2022-12-18T15:13:58;2.10;97.10
10662;DHT22;5379;51.034;7.006;2022-12-18T15:16:26;2.10;97.20
10662;DHT22;5379;51.034;7.006;2022-12-18T15:18:53;2.00;97.10
10662;DHT22;5379;51.034;7.006;2022-12-18T15:21:20;2.00;97.10
10662;DHT22;5379;51.034;7.006;2022-12-18T15:23:49;1.90;97.20
10662;DHT22;5379;51.034;7.006;2022-12-18T15:26:18;2.00;97.10
10662;DHT22;5379;51.034;7.006;2022-12-18T15:28:48;2.10;97.10
10662;DHT22;5379;51.034;7.006;2022-12-18T15:31:27;2.00;96.90
10662;DHT22;5379;51.034;7.006;2022-12-18T15:34:11;1.90;97.10
10662;DHT22;5379;51.034;7.006;2022-12-18T15:36:39;2.00;97.30
10662;DHT22;5379;51.034;7.006;2022-12-18T15:39:06;2.10;98.40
10662;DHT22;5379;51.034;7.006;2022-12-18T15:41:35;2.20;97.00
10662;DHT22;5379;51.034;7.006;2022-12-18T15:44:21;2.20;97.00
10662;DHT22;5379;51.034;7.006;2022-12-18T15:46:47;2.00;96.80
10662;DHT22;5379;51.034;7.006;2022-12-18T15:49:14;2.00;97.30
10662;DHT22;5379;51.034;7.006;2022-12-18T15:51:41;2.00;97.30
10662;DHT22;5379;51.034;7.006;2022-12-18T15:54:12;1.90;97.20
10662;DHT22;5379;51.034;7.006;2022-12-18T15:56:41;2.10;97.70
10662;DHT22;5379;51.034;7.006;2022-12-18T15:59:27;2.00;97.10
10662;DHT22;5379;51.034;7.006;2022-12-18T16:01:54;1.90;97.60
10662;DHT22;5379;51.034;7.006;2022-12-18T16:04:22;1.90;97.60
10662;DHT22;5379;51.034;7.006;2022-12-18T16:06:50;1.80;97.60
10662;DHT22;5379;51.034;7.006;2022-12-18T16:09:18;1.80;97.60
10662;DHT22;5379;51.034;7.006;2022-12-18T16:11:45;1.80;97.90
10662;DHT22;5379;51.034;7.006;2022-12-18T16:14:19;2.00;98.50
10662;DHT22;5379;51.034;7.006;2022-12-18T16:16:49;1.80;97.60
10662;DHT22;5379;51.034;7.006;2022-12-18T16:19:17;1.90;98.00
10662;DHT22;5379;51.034;7.006;2022-12-18T16:21:46;2.10;98.20
10662;DHT22;5379;51.034;7.006;2022-12-18T16:24:15;2.00;97.80
10662;DHT22;5379;51.034;7.006;2022-12-18T16:26:43;2.00;98.00
10662;DHT22;5379;51.034;7.006;2022-12-18T16:29:10;1.90;98.30
10662;DHT22;5379;51.034;7.006;2022-12-18T16:31:38;1.90;98.30
10662;DHT22;5379;51.034;7.006;2022-12-18T16:34:19;1.70;98.40
10662;DHT22;5379;51.034;7.006;2022-12-18T16:36:47;1.70;98.60
10662;DHT22;5379;51.034;7.006;2022-12-18T16:39:14;1.70;98.80
10662;DHT22;5379;51.034;7.006;2022-12-18T16:41:42;1.90;99.20
10662;DHT22;5379;51.034;7.006;2022-12-18T16:44:09;1.80;98.80
10662;DHT22;5379;51.034;7.006;2022-12-18T16:46:36;2.00;99.00
10662;DHT22;5379;51.034;7.006;2022-12-18T16:49:04;1.80;98.50
10662;DHT22;5379;51.034;7.006;2022-12-18T16:51:34;1.70;98.80
10662;DHT22;5379;51.034;7.006;2022-12-18T16:54:01;1.90;99.70
10662;DHT22;5379;51.034;7.006;2022-12-18T16:56:28;2.10;98.90
10662;DHT22;5379;51.034;7.006;2022-12-18T16:58:58;2.20;99.00
10662;DHT22;5379;51.034;7.006;2022-12-18T17:01:27;1.90;98.70
10662;DHT22;5379;51.034;7.006;2022-12-18T17:03:56;1.70;98.90
10662;DHT22;5379;51.034;7.006;2022-12-18T17:06:25;1.80;99.10
10662;DHT22;5379;51.034;7.006;2022-12-18T17:08:56;1.70;99.10
10662;DHT22;5379;51.034;7.006;2022-12-18T17:11:27;1.70;99.10
10662;DHT22;5379;51.034;7.006;2022-12-18T17:13:54;1.70;99.20
10662;DHT22;5379;51.034;7.006;2022-12-18T17:16:22;1.60;99.10
10662;DHT22;5379;51.034;7.006;2022-12-18T17:18:51;1.70;99.00
10662;DHT22;5379;51.034;7.006;2022-12-18T17:21:19;1.70;99.10
10662;DHT22;5379;51.034;7.006;2022-12-18T17:23:46;1.50;99.00
10662;DHT22;5379;51.034;7.006;2022-12-18T17:26:14;1.50;99.30
10662;DHT22;5379;51.034;7.006;2022-12-18T17:28:41;1.50;99.80
10662;DHT22;5379;51.034;7.006;2022-12-18T17:31:13;1.40;99.30
10662;DHT22;5379;51.034;7.006;2022-12-18T17:33:40;1.40;99.60
10662;DHT22;5379;51.034;7.006;2022-12-18T17:36:08;1.50;99.50
10662;DHT22;5379;51.034;7.006;2022-12-18T17:38:35;1.50;99.50
10662;DHT22;5379;51.034;7.006;2022-12-18T17:41:03;1.50;99.30
10662;DHT22;5379;51.034;7.006;2022-12-18T17:43:32;1.50;99.70
10662;DHT22;5379;51.034;7.006;2022-12-18T17:46:01;1.60;99.40
10662;DHT22;5379;51.034;7.006;2022-12-18T17:48:28;1.40;99.20
10662;DHT22;5379;51.034;7.006;2022-12-18T17:51:00;1.40;99.40
10662;DHT22;5379;51.034;7.006;2022-12-18T17:53:27;1.40;99.90
10662;DHT22;5379;51.034;7.006;2022-12-18T17:55:54;1.50;99.50
10662;DHT22;5379;51.034;7.006;2022-12-18T17:58:21;1.40;99.40
10662;DHT22;5379;51.034;7.006;2022-12-18T18:00:50;1.50;99.50
10662;DHT22;5379;51.034;7.006;2022-12-18T18:03:17;1.40;99.40
10662;DHT22;5379;51.034;7.006;2022-12-18T18:05:44;1.40;99.70
10662;DHT22;5379;51.034;7.006;2022-12-18T18:08:11;1.40;99.60
10662;DHT22;5379;51.034;7.006;2022-12-18T18:10:39;1.40;99.80
10662;DHT22;5379;51.034;7.006;2022-12-18T18:13:14;1.40;99.90
10662;DHT22;5379;51.034;7.006;2022-12-18T18:16:02;1.40;99.50
10662;DHT22;5379;51.034;7.006;2022-12-18T18:18:29;1.30;99.80
10662;DHT22;5379;51.034;7.006;2022-12-18T18:20:56;1.30;99.80
10662;DHT22;5379;51.034;7.006;2022-12-18T18:23:23;1.50;99.90
10662;DHT22;5379;51.034;7.006;2022-12-18T18:25:53;1.40;99.60
10662;DHT22;5379;51.034;7.006;2022-12-18T18:28:20;1.50;99.90
10662;DHT22;5379;51.034;7.006;2022-12-18T18:30:47;1.30;99.50
10662;DHT22;5379;51.034;7.006;2022-12-18T18:33:15;1.30;99.80
10662;DHT22;5379;51.034;7.006;2022-12-18T18:35:43;1.40;99.80
10662;DHT22;5379;51.034;7.006;2022-12-18T18:38:10;1.40;99.40
10662;DHT22;5379;51.034;7.006;2022-12-18T18:40:37;1.50;99.90
10662;DHT22;5379;51.034;7.006;2022-12-18T18:43:04;1.50;99.80
10662;DHT22;5379;51.034;7.006;2022-12-18T18:45:31;1.40;99.80
10662;DHT22;5379;51.034;7.006;2022-12-18T18:47:58;1.50;99.70
10662;DHT22;5379;51.034;7.006;2022-12-18T18:50:26;1.30;99.70
10662;DHT22;5379;51.034;7.006;2022-12-18T18:52:53;1.40;99.80
10662;DHT22;5379;51.034;7.006;2022-12-18T18:55:20;1.40;99.90
10662;DHT22;5379;51.034;7.006;2022-12-18T18:57:47;1.50;99.90
10662;DHT22;5379;51.034;7.006;2022-12-18T19:00:15;1.60;99.80
10662;DHT22;5379;51.034;7.006;2022-12-18T19:02:42;1.50;99.90
10662;DHT22;5379;51.034;7.006;2022-12-18T19:05:09;1.50;99.60
10662;DHT22;5379;51.034;7.006;2022-12-18T19:07:38;1.50;99.60
10662;DHT22;5379;51.034;7.006;2022-12-18T19:10:06;1.50;99.70
10662;DHT22;5379;51.034;7.006;2022-12-18T19:12:34;1.50;99.70
10662;DHT22;5379;51.034;7.006;2022-12-18T19:15:18;1.70;99.90
10662;DHT22;5379;51.034;7.006;2022-12-18T19:17:46;1.50;99.60
10662;DHT22;5379;51.034;7.006;2022-12-18T19:20:13;1.50;99.90
10662;DHT22;5379;51.034;7.006;2022-12-18T19:22:41;1.50;99.70
10662;DHT22;5379;51.034;7.006;2022-12-18T19:25:09;1.50;99.80
10662;DHT22;5379;51.034;7.006;2022-12-18T19:27:36;1.50;99.90
10662;DHT22;5379;51.034;7.006;2022-12-18T19:30:05;1.50;99.90
10662;DHT22;5379;51.034;7.006;2022-12-18T19:32:32;1.50;99.80
10662;DHT22;5379;51.034;7.006;2022-12-18T19:34:59;1.40;99.70
10662;DHT22;5379;51.034;7.006;2022-12-18T19:37:27;1.60;99.90
10662;DHT22;5379;51.034;7.006;2022-12-18T19:39:55;1.60;99.80
10662;DHT22;5379;51.034;7.006;2022-12-18T19:42:22;1.60;99.80
10662;DHT22;5379;51.034;7.006;2022-12-18T19:44:49;1.60;99.70
10662;DHT22;5379;51.034;7.006;2022-12-18T19:47:16;1.60;99.70
10662;DHT22;5379;51.034;7.006;2022-12-18T19:49:43;1.60;99.80
10662;DHT22;5379;51.034;7.006;2022-12-18T19:52:10;1.70;99.90
10662;DHT22;5379;51.034;7.006;2022-12-18T19:54:37;1.70;99.90
10662;DHT22;5379;51.034;7.006;2022-12-18T19:57:06;1.90;99.80
10662;DHT22;5379;51.034;7.006;2022-12-18T19:59:36;1.80;99.40
10662;DHT22;5379;51.034;7.006;2022-12-18T20:02:03;1.70;99.50
10662;DHT22;5379;51.034;7.006;2022-12-18T20:04:29;1.70;99.70
10662;DHT22;5379;51.034;7.006;2022-12-18T20:06:57;1.70;99.90
10662;DHT22;5379;51.034;7.006;2022-12-18T20:09:24;1.90;99.90
10662;DHT22;5379;51.034;7.006;2022-12-18T20:11:51;1.80;99.80
10662;DHT22;5379;51.034;7.006;2022-12-18T20:14:20;1.80;99.90